createdAt,value
2023-03-20T00:00:06.696Z,7.69
2023-03-20T00:01:08.446Z,7.69
2023-03-20T00:02:10.188Z,7.69
2023-03-20T00:03:11.912Z,7.68
2023-03-20T00:04:13.782Z,7.68
2023-03-20T00:05:15.395Z,7.68
2023-03-20T00:06:17.113Z,7.68
2023-03-20T00:07:19.028Z,7.68
2023-03-20T00:08:20.570Z,7.68
2023-03-20T00:09:22.334Z,7.69
2023-03-20T00:10:24.025Z,7.69
2023-03-20T00:11:25.778Z,7.7
2023-03-20T00:12:27.526Z,7.69
2023-03-20T00:13:29.240Z,7.71
2023-03-20T00:14:30.968Z,7.71
2023-03-20T00:15:34.025Z,7.72
2023-03-20T00:16:34.521Z,7.73
2023-03-20T00:17:36.441Z,7.74
2023-03-20T00:18:37.981Z,7.75
2023-03-20T00:19:39.646Z,7.75
2023-03-20T00:20:41.359Z,7.75
2023-03-20T00:21:43.096Z,7.76
2023-03-20T00:22:44.866Z,7.76
2023-03-20T00:23:46.579Z,7.76
2023-03-20T00:24:48.321Z,7.77
2023-03-20T00:25:51.529Z,7.76
2023-03-20T00:26:51.790Z,7.77
2023-03-20T00:27:53.509Z,7.77
2023-03-20T00:28:55.469Z,7.77
2023-03-20T00:29:56.965Z,7.77
2023-03-20T00:30:58.789Z,7.76
2023-03-20T00:32:01.768Z,7.76
2023-03-20T00:33:02.431Z,7.76
2023-03-20T00:34:03.942Z,7.75
2023-03-20T00:35:05.669Z,7.75
2023-03-20T00:36:07.428Z,7.75
2023-03-20T00:37:09.163Z,7.75
2023-03-20T00:38:10.829Z,7.74
2023-03-20T00:39:12.560Z,7.73
2023-03-20T00:40:14.307Z,7.73
2023-03-20T00:41:16.054Z,7.72
2023-03-20T00:42:17.763Z,7.71
2023-03-20T00:43:19.493Z,7.7
2023-03-20T00:44:21.242Z,7.69
2023-03-20T00:45:22.987Z,7.69
2023-03-20T00:46:24.728Z,7.68
2023-03-20T00:47:26.438Z,7.66
2023-03-20T00:48:28.190Z,7.65
2023-03-20T00:49:29.917Z,7.65
2023-03-20T00:50:31.650Z,7.64
2023-03-20T00:51:33.380Z,7.63
2023-03-20T00:52:35.129Z,7.63
2023-03-20T00:53:36.931Z,7.61
2023-03-20T00:54:38.571Z,7.61
2023-03-20T00:55:40.328Z,7.6
2023-03-20T00:56:42.090Z,7.6
2023-03-20T00:57:43.764Z,7.59
2023-03-20T00:58:45.510Z,7.59
2023-03-20T00:59:47.246Z,7.59
2023-03-20T01:00:49.005Z,7.58
2023-03-20T01:01:50.762Z,7.58
2023-03-20T01:02:52.431Z,7.58
2023-03-20T01:03:54.171Z,7.58
2023-03-20T01:04:55.888Z,7.58
2023-03-20T01:05:57.623Z,7.58
2023-03-20T01:06:59.370Z,7.58
2023-03-20T01:08:01.125Z,7.57
2023-03-20T01:09:02.843Z,7.57
2023-03-20T01:10:04.625Z,7.56
2023-03-20T01:11:06.318Z,7.56
2023-03-20T01:12:08.087Z,7.56
2023-03-20T01:13:09.753Z,7.55
2023-03-20T01:14:11.523Z,7.55
2023-03-20T01:15:13.227Z,7.54
2023-03-20T01:16:15.018Z,7.54
2023-03-20T01:17:16.693Z,7.53
2023-03-20T01:18:18.439Z,7.52
2023-03-20T01:19:20.190Z,7.51
2023-03-20T01:20:21.886Z,7.51
2023-03-20T01:21:23.664Z,7.52
2023-03-20T01:22:25.377Z,7.51
2023-03-20T01:23:27.108Z,7.51
2023-03-20T01:24:28.840Z,7.51
2023-03-20T01:25:30.550Z,7.52
2023-03-20T01:26:32.313Z,7.51
2023-03-20T01:27:34.021Z,7.52
2023-03-20T01:28:35.772Z,7.52
2023-03-20T01:29:37.539Z,7.52
2023-03-20T01:30:39.228Z,7.53
2023-03-20T01:31:40.994Z,7.54
2023-03-20T01:32:42.721Z,7.54
2023-03-20T01:33:44.417Z,7.56
2023-03-20T01:34:46.262Z,7.57
2023-03-20T01:35:48.030Z,7.57
2023-03-20T01:36:49.889Z,7.58
2023-03-20T01:37:51.443Z,7.58
2023-03-20T01:38:53.105Z,7.59
2023-03-20T01:39:54.847Z,7.59
2023-03-20T01:40:56.550Z,7.61
2023-03-20T01:41:58.290Z,7.61
2023-03-20T01:43:00.051Z,7.61
2023-03-20T01:44:01.761Z,7.62
2023-03-20T01:45:03.507Z,7.63
2023-03-20T01:46:05.285Z,7.62
2023-03-20T01:47:06.987Z,7.62
2023-03-20T01:48:08.714Z,7.63
2023-03-20T01:49:10.460Z,7.64
2023-03-20T01:50:12.184Z,7.63
2023-03-20T01:51:13.903Z,7.63
2023-03-20T01:52:15.634Z,7.64
2023-03-20T01:53:17.426Z,7.64
2023-03-20T01:54:19.113Z,7.65
2023-03-20T01:55:20.857Z,7.64
2023-03-20T01:56:22.593Z,7.64
2023-03-20T01:57:24.291Z,7.65
2023-03-20T01:58:26.044Z,7.64
2023-03-20T01:59:27.776Z,7.65
2023-03-20T02:00:29.525Z,7.65
2023-03-20T02:01:31.492Z,7.65
2023-03-20T02:02:32.978Z,7.65
2023-03-20T02:03:34.706Z,7.65
2023-03-20T02:04:36.505Z,7.65
2023-03-20T02:05:38.312Z,7.65
2023-03-20T02:06:39.915Z,7.65
2023-03-20T02:07:41.642Z,7.65
2023-03-20T02:08:43.365Z,7.65
2023-03-20T02:09:45.099Z,7.65
2023-03-20T02:10:46.845Z,7.65
2023-03-20T02:11:48.584Z,7.64
2023-03-20T02:12:50.295Z,7.64
2023-03-20T02:13:52.030Z,7.64
2023-03-20T02:14:53.779Z,7.64
2023-03-20T02:15:55.517Z,7.64
2023-03-20T02:16:57.279Z,7.64
2023-03-20T02:17:58.988Z,7.64
2023-03-20T02:19:00.700Z,7.64
2023-03-20T02:20:02.454Z,7.64
2023-03-20T02:21:04.256Z,7.63
2023-03-20T02:22:05.881Z,7.64
2023-03-20T02:23:07.633Z,7.64
2023-03-20T02:24:09.360Z,7.64
2023-03-20T02:25:11.123Z,7.63
2023-03-20T02:26:12.847Z,7.64
2023-03-20T02:27:14.589Z,7.63
2023-03-20T02:28:16.310Z,7.64
2023-03-20T02:29:18.043Z,7.63
2023-03-20T02:30:19.773Z,7.63
2023-03-20T02:31:21.610Z,7.64
2023-03-20T02:32:23.302Z,7.63
2023-03-20T02:33:24.973Z,7.63
2023-03-20T02:34:26.721Z,7.64
2023-03-20T02:35:28.425Z,7.63
2023-03-20T02:36:30.173Z,7.63
2023-03-20T02:37:31.900Z,7.62
2023-03-20T02:38:33.637Z,7.62
2023-03-20T02:39:35.381Z,7.62
2023-03-20T02:40:37.125Z,7.61
2023-03-20T02:41:38.947Z,7.61
2023-03-20T02:42:40.558Z,7.6
2023-03-20T02:43:42.325Z,7.6
2023-03-20T02:44:44.034Z,7.61
2023-03-20T02:45:45.768Z,7.6
2023-03-20T02:46:47.519Z,7.6
2023-03-20T02:47:49.227Z,7.6
2023-03-20T02:48:50.980Z,7.6
2023-03-20T02:49:52.706Z,7.59
2023-03-20T02:50:54.432Z,7.59
2023-03-20T02:51:56.173Z,7.58
2023-03-20T02:52:57.920Z,7.58
2023-03-20T02:53:59.659Z,7.57
2023-03-20T02:55:01.392Z,7.57
2023-03-20T02:56:03.113Z,7.57
2023-03-20T02:57:04.856Z,7.57
2023-03-20T02:58:06.574Z,7.56
2023-03-20T02:59:08.310Z,7.56
2023-03-20T03:00:10.059Z,7.55
2023-03-20T03:01:11.899Z,7.56
2023-03-20T03:02:13.570Z,7.56
2023-03-20T03:03:15.259Z,7.56
2023-03-20T03:04:16.977Z,7.56
2023-03-20T03:05:18.717Z,7.56
2023-03-20T03:06:20.456Z,7.56
2023-03-20T03:07:22.200Z,7.57
2023-03-20T03:08:23.901Z,7.56
2023-03-20T03:09:25.676Z,7.57
2023-03-20T03:10:27.432Z,7.56
2023-03-20T03:11:29.129Z,7.56
2023-03-20T03:12:30.849Z,7.57
2023-03-20T03:13:32.626Z,7.56
2023-03-20T03:14:34.323Z,7.56
2023-03-20T03:15:36.308Z,7.56
2023-03-20T03:16:37.814Z,7.55
2023-03-20T03:17:39.535Z,7.55
2023-03-20T03:18:41.276Z,7.55
2023-03-20T03:19:42.993Z,7.54
2023-03-20T03:20:44.722Z,7.54
2023-03-20T03:21:46.465Z,7.54
2023-03-20T03:22:48.174Z,7.52
2023-03-20T03:23:49.930Z,7.53
2023-03-20T03:24:51.623Z,7.52
2023-03-20T03:25:53.368Z,7.51
2023-03-20T03:26:55.133Z,7.51
2023-03-20T03:27:56.863Z,7.52
2023-03-20T03:28:58.569Z,7.51
2023-03-20T03:30:00.411Z,7.52
2023-03-20T03:31:02.143Z,7.53
2023-03-20T03:32:03.804Z,7.53
2023-03-20T03:33:05.578Z,7.54
2023-03-20T03:34:07.254Z,7.54
2023-03-20T03:35:08.987Z,7.54
2023-03-20T03:36:10.803Z,7.55
2023-03-20T03:37:12.494Z,7.56
2023-03-20T03:38:14.218Z,7.58
2023-03-20T03:39:15.944Z,7.58
2023-03-20T03:40:17.675Z,7.59
2023-03-20T03:41:19.414Z,7.59
2023-03-20T03:42:21.119Z,7.6
2023-03-20T03:43:22.885Z,7.61
2023-03-20T03:44:24.596Z,7.63
2023-03-20T03:45:26.311Z,7.63
2023-03-20T03:46:28.082Z,7.63
2023-03-20T03:47:29.786Z,7.63
2023-03-20T03:48:31.526Z,7.63
2023-03-20T03:49:33.269Z,7.64
2023-03-20T03:50:34.973Z,7.64
2023-03-20T03:51:36.726Z,7.65
2023-03-20T03:52:38.454Z,7.67
2023-03-20T03:53:40.244Z,7.67
2023-03-20T03:54:41.913Z,7.68
2023-03-20T03:55:43.715Z,7.69
2023-03-20T03:56:45.380Z,7.69
2023-03-20T03:57:47.139Z,7.69
2023-03-20T03:58:48.855Z,7.7
2023-03-20T03:59:50.587Z,7.69
2023-03-20T04:00:52.332Z,7.7
2023-03-20T04:01:54.250Z,7.71
2023-03-20T04:02:55.793Z,7.71
2023-03-20T04:03:57.504Z,7.72
2023-03-20T04:04:59.368Z,7.71
2023-03-20T04:06:01.006Z,7.72
2023-03-20T04:07:02.714Z,7.72
2023-03-20T04:08:04.450Z,7.72
2023-03-20T04:09:06.206Z,7.71
2023-03-20T04:10:07.949Z,7.71
2023-03-20T04:11:09.662Z,7.71
2023-03-20T04:12:11.425Z,7.71
2023-03-20T04:13:13.111Z,7.71
2023-03-20T04:14:14.853Z,7.71
2023-03-20T04:15:16.621Z,7.71
2023-03-20T04:16:18.361Z,7.71
2023-03-20T04:17:20.070Z,7.71
2023-03-20T04:18:21.831Z,7.7
2023-03-20T04:19:23.522Z,7.71
2023-03-20T04:20:25.235Z,7.71
2023-03-20T04:21:26.982Z,7.71
2023-03-20T04:22:28.771Z,7.72
2023-03-20T04:23:30.457Z,7.72
2023-03-20T04:24:32.184Z,7.72
2023-03-20T04:25:34.023Z,7.71
2023-03-20T04:26:35.680Z,7.71
2023-03-20T04:27:37.401Z,7.72
2023-03-20T04:28:39.117Z,7.71
2023-03-20T04:29:40.858Z,7.71
2023-03-20T04:30:42.589Z,7.71
2023-03-20T04:31:44.364Z,7.71
2023-03-20T04:32:46.127Z,7.72
2023-03-20T04:33:47.816Z,7.73
2023-03-20T04:34:49.532Z,7.73
2023-03-20T04:35:51.366Z,7.74
2023-03-20T04:36:52.976Z,7.75
2023-03-20T04:37:54.732Z,7.74
2023-03-20T04:38:57.692Z,7.75
2023-03-20T04:39:58.175Z,7.75
2023-03-20T04:40:59.902Z,7.76
2023-03-20T04:42:01.707Z,7.76
2023-03-20T04:43:03.429Z,7.77
2023-03-20T04:44:05.138Z,7.78
2023-03-20T04:45:06.849Z,7.78
2023-03-20T04:46:08.630Z,7.79
2023-03-20T04:47:10.322Z,7.79
2023-03-20T04:48:12.097Z,7.79
2023-03-20T04:49:13.784Z,7.8
2023-03-20T04:50:15.571Z,7.8
2023-03-20T04:51:17.262Z,7.81
2023-03-20T04:52:18.999Z,7.81
2023-03-20T04:53:20.779Z,7.82
2023-03-20T04:54:22.452Z,7.82
2023-03-20T04:55:24.199Z,7.83
2023-03-20T04:56:25.910Z,7.82
2023-03-20T04:57:27.678Z,7.82
2023-03-20T04:58:29.425Z,7.83
2023-03-20T04:59:31.121Z,7.83
2023-03-20T05:00:32.861Z,7.83
2023-03-20T05:01:34.590Z,7.84
2023-03-20T05:02:36.332Z,7.84
2023-03-20T05:03:38.082Z,7.84
2023-03-20T05:04:39.798Z,7.83
2023-03-20T05:05:41.528Z,7.84
2023-03-20T05:06:43.296Z,7.83
2023-03-20T05:07:44.984Z,7.84
2023-03-20T05:08:46.736Z,7.83
2023-03-20T05:09:48.484Z,7.83
2023-03-20T05:10:50.225Z,7.84
2023-03-20T05:11:51.934Z,7.83
2023-03-20T05:12:53.676Z,7.84
2023-03-20T05:13:55.395Z,7.83
2023-03-20T05:14:57.171Z,7.83
2023-03-20T05:15:58.840Z,7.83
2023-03-20T05:17:00.671Z,7.82
2023-03-20T05:18:02.310Z,7.82
2023-03-20T05:19:04.054Z,7.82
2023-03-20T05:20:05.810Z,7.82
2023-03-20T05:21:07.519Z,7.82
2023-03-20T05:22:09.273Z,7.82
2023-03-20T05:23:10.983Z,7.81
2023-03-20T05:24:12.721Z,7.8
2023-03-20T05:25:14.457Z,7.8
2023-03-20T05:26:16.184Z,7.81
2023-03-20T05:27:17.927Z,7.8
2023-03-20T05:28:19.628Z,7.8
2023-03-20T05:29:21.407Z,7.8
2023-03-20T05:30:23.094Z,7.79
2023-03-20T05:31:24.885Z,7.81
2023-03-20T05:32:26.656Z,7.8
2023-03-20T05:33:28.319Z,7.8
2023-03-20T05:34:30.060Z,7.79
2023-03-20T05:35:31.793Z,7.81
2023-03-20T05:36:33.522Z,7.79
2023-03-20T05:37:35.258Z,7.79
2023-03-20T05:38:36.980Z,7.8
2023-03-20T05:39:38.728Z,7.79
2023-03-20T05:40:40.469Z,7.78
2023-03-20T05:41:44.645Z,7.79
2023-03-20T05:42:43.905Z,7.79
2023-03-20T05:43:45.657Z,7.79
2023-03-20T05:44:47.381Z,7.79
2023-03-20T05:45:49.237Z,7.78
2023-03-20T05:46:50.878Z,7.78
2023-03-20T05:47:52.599Z,7.77
2023-03-20T05:48:54.305Z,7.77
2023-03-20T05:49:56.057Z,7.77
2023-03-20T05:50:57.784Z,7.76
2023-03-20T05:51:59.765Z,7.76
2023-03-20T05:53:01.233Z,7.76
2023-03-20T05:54:02.963Z,7.76
2023-03-20T05:55:04.752Z,7.75
2023-03-20T05:56:06.450Z,7.74
2023-03-20T05:57:08.217Z,7.74
2023-03-20T05:58:09.921Z,7.74
2023-03-20T05:59:11.617Z,7.74
2023-03-20T06:00:13.368Z,7.74
2023-03-20T06:01:15.115Z,7.74
2023-03-20T06:02:16.845Z,7.74
2023-03-20T06:03:18.620Z,7.73
2023-03-20T06:04:20.317Z,7.73
2023-03-20T06:05:22.048Z,7.73
2023-03-20T06:06:23.815Z,7.73
2023-03-20T06:07:25.504Z,7.73
2023-03-20T06:08:27.307Z,7.73
2023-03-20T06:09:28.990Z,7.74
2023-03-20T06:10:30.736Z,7.74
2023-03-20T06:11:32.428Z,7.74
2023-03-20T06:12:34.157Z,7.75
2023-03-20T06:13:35.961Z,7.75
2023-03-20T06:14:37.626Z,7.75
2023-03-20T06:15:39.745Z,7.74
2023-03-20T06:16:41.132Z,7.74
2023-03-20T06:17:42.833Z,7.74
2023-03-20T06:18:44.580Z,7.74
2023-03-20T06:19:46.310Z,7.73
2023-03-20T06:20:48.045Z,7.73
2023-03-20T06:21:49.805Z,7.73
2023-03-20T06:22:51.519Z,7.73
2023-03-20T06:23:53.228Z,7.72
2023-03-20T06:24:56.922Z,7.72
2023-03-20T06:25:56.738Z,7.72
2023-03-20T06:26:58.435Z,7.72
2023-03-20T06:28:00.216Z,7.72
2023-03-20T06:29:01.924Z,7.72
2023-03-20T06:30:03.640Z,7.72
2023-03-20T06:31:05.442Z,7.72
2023-03-20T06:32:07.122Z,7.72
2023-03-20T06:33:08.896Z,7.72
2023-03-20T06:34:10.585Z,7.72
2023-03-20T06:35:12.325Z,7.73
2023-03-20T06:36:14.059Z,7.73
2023-03-20T06:37:15.750Z,7.73
2023-03-20T06:38:17.501Z,7.74
2023-03-20T06:39:19.231Z,7.74
2023-03-20T06:40:20.975Z,7.75
2023-03-20T06:41:33.761Z,7.76
2023-03-20T06:42:24.439Z,7.77
2023-03-20T06:43:26.192Z,7.77
2023-03-20T06:44:27.990Z,7.77
2023-03-20T06:45:29.646Z,7.78
2023-03-20T06:46:31.486Z,7.79
2023-03-20T06:47:33.091Z,7.79
2023-03-20T06:48:34.824Z,7.8
2023-03-20T06:49:36.549Z,7.79
2023-03-20T06:50:38.304Z,7.8
2023-03-20T06:51:40.036Z,7.8
2023-03-20T06:52:41.770Z,7.8
2023-03-20T06:53:43.484Z,7.8
2023-03-20T06:54:45.264Z,7.8
2023-03-20T06:55:46.956Z,7.8
2023-03-20T06:56:48.710Z,7.81
2023-03-20T06:57:50.411Z,7.81
2023-03-20T06:58:52.145Z,7.81
2023-03-20T06:59:53.893Z,7.82
2023-03-20T07:00:55.684Z,7.83
2023-03-20T07:01:57.481Z,7.83
2023-03-20T07:03:01.745Z,7.84
2023-03-20T07:04:00.817Z,7.85
2023-03-20T07:05:02.700Z,7.85
2023-03-20T07:06:04.396Z,7.87
2023-03-20T07:07:06.049Z,7.87
2023-03-20T07:08:07.849Z,7.87
2023-03-20T07:09:09.488Z,7.87
2023-03-20T07:10:11.232Z,7.88
2023-03-20T07:11:12.974Z,7.88
2023-03-20T07:12:14.735Z,7.88
2023-03-20T07:13:16.465Z,7.89
2023-03-20T07:14:18.169Z,7.89
2023-03-20T07:15:19.920Z,7.89
2023-03-20T07:16:21.677Z,7.88
2023-03-20T07:17:23.388Z,7.88
2023-03-20T07:18:25.088Z,7.9
2023-03-20T07:19:26.845Z,7.89
2023-03-20T07:20:28.572Z,7.9
2023-03-20T07:21:30.314Z,7.9
2023-03-20T07:22:32.044Z,7.9
2023-03-20T07:23:33.773Z,7.9
2023-03-20T07:24:35.529Z,7.91
2023-03-20T07:25:42.958Z,7.92
2023-03-20T07:26:38.973Z,7.92
2023-03-20T07:27:40.717Z,7.93
2023-03-20T07:28:42.444Z,7.94
2023-03-20T07:29:44.154Z,7.94
2023-03-20T07:30:45.892Z,7.96
2023-03-20T07:31:47.744Z,7.97
2023-03-20T07:32:49.406Z,7.97
2023-03-20T07:33:51.092Z,7.99
2023-03-20T07:34:52.823Z,8
2023-03-20T07:35:54.649Z,8.01
2023-03-20T07:36:56.387Z,8.03
2023-03-20T07:37:58.360Z,8.05
2023-03-20T07:38:59.764Z,8.06
2023-03-20T07:40:01.495Z,8.09
2023-03-20T07:41:03.234Z,8.1
2023-03-20T07:42:04.961Z,8.11
2023-03-20T07:43:06.687Z,8.13
2023-03-20T07:44:08.440Z,8.15
2023-03-20T07:45:10.166Z,8.16
2023-03-20T07:46:11.936Z,8.17
2023-03-20T07:47:13.657Z,8.19
2023-03-20T07:48:15.384Z,8.2
2023-03-20T07:49:17.079Z,8.23
2023-03-20T07:50:18.839Z,8.24
2023-03-20T07:51:20.596Z,8.25
2023-03-20T07:52:22.312Z,8.26
2023-03-20T07:53:24.127Z,8.27
2023-03-20T07:54:25.750Z,8.28
2023-03-20T07:55:27.507Z,8.28
2023-03-20T07:56:29.231Z,8.29
2023-03-20T07:57:30.943Z,8.3
2023-03-20T07:58:32.708Z,8.31
2023-03-20T07:59:34.474Z,8.31
2023-03-20T08:00:36.173Z,8.31
2023-03-20T08:01:37.935Z,8.32
2023-03-20T08:02:39.644Z,8.32
2023-03-20T08:03:41.516Z,8.32
2023-03-20T08:04:43.098Z,8.32
2023-03-20T08:05:47.215Z,8.32
2023-03-20T08:06:46.562Z,8.32
2023-03-20T08:07:48.293Z,8.31
2023-03-20T08:08:50.019Z,8.31
2023-03-20T08:09:51.862Z,8.31
2023-03-20T08:10:53.538Z,8.31
2023-03-20T08:11:55.275Z,8.3
2023-03-20T08:12:56.945Z,8.3
2023-03-20T08:13:58.700Z,8.28
2023-03-20T08:15:00.425Z,8.26
2023-03-20T08:16:02.153Z,8.25
2023-03-20T08:17:14.563Z,8.24
2023-03-20T08:18:05.632Z,8.23
2023-03-20T08:19:07.368Z,8.23
2023-03-20T08:20:09.236Z,8.22
2023-03-20T08:21:10.855Z,8.21
2023-03-20T08:22:12.569Z,8.21
2023-03-20T08:23:14.308Z,8.2
2023-03-20T08:24:16.041Z,8.2
2023-03-20T08:25:17.750Z,8.2
2023-03-20T08:26:19.532Z,8.2
2023-03-20T08:27:21.236Z,8.21
2023-03-20T08:28:30.819Z,8.22
2023-03-20T08:29:24.675Z,8.24
2023-03-20T08:30:26.576Z,8.27
2023-03-20T08:31:28.147Z,8.33
2023-03-20T08:32:29.899Z,8.4
2023-03-20T08:33:31.634Z,8.5
2023-03-20T08:34:33.344Z,8.63
2023-03-20T08:35:35.175Z,8.77
2023-03-20T08:36:36.848Z,8.91
2023-03-20T08:37:38.605Z,9.03
2023-03-20T08:38:40.280Z,9.15
2023-03-20T08:39:42.032Z,9.29
2023-03-20T08:40:43.745Z,9.41
2023-03-20T08:41:45.513Z,9.53
2023-03-20T08:42:47.225Z,9.65
2023-03-20T08:43:48.948Z,9.75
2023-03-20T08:44:50.723Z,9.87
2023-03-20T08:45:52.423Z,9.96
2023-03-20T08:46:54.214Z,10.05
2023-03-20T08:47:55.956Z,10.13
2023-03-20T08:48:57.603Z,10.17
2023-03-20T08:49:59.411Z,10.19
2023-03-20T08:51:01.080Z,10.19
2023-03-20T08:52:02.828Z,10.18
2023-03-20T08:53:04.548Z,10.18
2023-03-20T08:54:06.291Z,10.17
2023-03-20T08:55:08.092Z,10.2
2023-03-20T08:56:09.731Z,10.23
2023-03-20T08:57:11.497Z,10.27
2023-03-20T08:58:13.212Z,10.34
2023-03-20T08:59:14.948Z,10.39
2023-03-20T09:00:16.699Z,10.41
2023-03-20T09:01:18.467Z,10.43
2023-03-20T09:02:21.481Z,10.45
2023-03-20T09:03:22.234Z,10.47
2023-03-20T09:04:23.611Z,10.48
2023-03-20T09:05:25.341Z,10.48
2023-03-20T09:06:27.136Z,10.47
2023-03-20T09:07:28.818Z,10.46
2023-03-20T09:08:30.553Z,10.44
2023-03-20T09:09:32.342Z,10.44
2023-03-20T09:10:34.037Z,10.42
2023-03-20T09:11:35.755Z,10.43
2023-03-20T09:12:37.484Z,10.44
2023-03-20T09:13:39.209Z,10.44
2023-03-20T09:14:41.057Z,10.46
2023-03-20T09:15:42.693Z,10.48
2023-03-20T09:16:44.453Z,10.48
2023-03-20T09:17:46.160Z,10.49
2023-03-20T09:18:47.888Z,10.54
2023-03-20T09:19:49.620Z,10.65
2023-03-20T09:20:51.357Z,10.61
2023-03-20T09:21:53.074Z,10.68
2023-03-20T09:22:54.816Z,10.78
2023-03-20T09:23:56.563Z,10.89
2023-03-20T09:24:58.316Z,11
2023-03-20T09:26:00.092Z,11.01
2023-03-20T09:27:03.591Z,11.12
2023-03-20T09:28:03.602Z,11.25
2023-03-20T09:29:05.232Z,11.38
2023-03-20T09:30:06.992Z,11.35
2023-03-20T09:31:08.844Z,11.31
2023-03-20T09:32:10.431Z,11.22
2023-03-20T09:33:12.514Z,11.19
2023-03-20T09:34:13.880Z,11.29
2023-03-20T09:35:15.652Z,11.2
2023-03-20T09:36:17.550Z,11.18
2023-03-20T09:37:19.094Z,11.21
2023-03-20T09:38:20.843Z,11.31
2023-03-20T09:39:22.580Z,11.34
2023-03-20T09:40:24.304Z,11.49
2023-03-20T09:41:28.072Z,11.57
2023-03-20T09:42:27.958Z,11.55
2023-03-20T09:43:29.509Z,11.76
2023-03-20T09:44:31.228Z,11.78
2023-03-20T09:45:32.976Z,11.76
2023-03-20T09:46:34.773Z,11.94
2023-03-20T09:47:36.445Z,12.04
2023-03-20T09:48:38.163Z,12.05
2023-03-20T09:49:39.903Z,12.13
2023-03-20T09:50:41.625Z,12.18
2023-03-20T09:51:43.448Z,12.24
2023-03-20T09:52:45.111Z,12.4
2023-03-20T09:53:46.827Z,12.48
2023-03-20T09:54:54.406Z,12.52
2023-03-20T09:55:50.336Z,12.66
2023-03-20T09:56:52.065Z,12.8
2023-03-20T09:57:53.882Z,12.86
2023-03-20T09:58:55.528Z,12.95
2023-03-20T09:59:57.256Z,12.98
2023-03-20T10:00:59.021Z,12.87
2023-03-20T10:02:00.820Z,12.79
2023-03-20T10:03:02.454Z,12.74
2023-03-20T10:04:04.195Z,12.76
2023-03-20T10:05:05.908Z,12.63
2023-03-20T10:06:07.660Z,12.53
2023-03-20T10:07:09.404Z,12.5
2023-03-20T10:08:11.080Z,12.45
2023-03-20T10:09:12.833Z,12.46
2023-03-20T10:10:14.560Z,12.57
2023-03-20T10:11:16.322Z,12.53
2023-03-20T10:12:18.032Z,12.59
2023-03-20T10:13:19.750Z,12.68
2023-03-20T10:14:21.500Z,12.69
2023-03-20T10:15:23.243Z,12.66
2023-03-20T10:16:25.010Z,12.62
2023-03-20T10:17:26.684Z,12.59
2023-03-20T10:18:28.423Z,12.55
2023-03-20T10:19:30.173Z,12.53
2023-03-20T10:20:31.911Z,12.65
2023-03-20T10:21:33.623Z,12.82
2023-03-20T10:22:35.383Z,12.8
2023-03-20T10:23:37.158Z,13.02
2023-03-20T10:24:38.837Z,13.33
2023-03-20T10:25:40.549Z,13.4
2023-03-20T10:26:42.343Z,13.45
2023-03-20T10:27:44.061Z,13.51
2023-03-20T10:28:45.753Z,13.53
2023-03-20T10:29:47.478Z,13.55
2023-03-20T10:30:49.225Z,13.58
2023-03-20T10:31:51.002Z,13.57
2023-03-20T10:32:52.763Z,13.57
2023-03-20T10:33:54.420Z,13.53
2023-03-20T10:34:56.275Z,13.5
2023-03-20T10:35:57.945Z,13.46
2023-03-20T10:36:59.632Z,13.44
2023-03-20T10:38:01.391Z,13.39
2023-03-20T10:39:03.106Z,13.38
2023-03-20T10:40:04.841Z,13.35
2023-03-20T10:41:06.591Z,13.35
2023-03-20T10:42:08.328Z,13.32
2023-03-20T10:43:10.064Z,13.29
2023-03-20T10:44:11.787Z,13.24
2023-03-20T10:45:13.532Z,13.19
2023-03-20T10:46:15.231Z,13.14
2023-03-20T10:47:17.160Z,13.07
2023-03-20T10:48:18.725Z,13.07
2023-03-20T10:49:20.482Z,13.07
2023-03-20T10:50:22.209Z,13.06
2023-03-20T10:51:23.931Z,13.06
2023-03-20T10:52:25.624Z,13.06
2023-03-20T10:53:27.567Z,13.06
2023-03-20T10:54:29.133Z,13.07
2023-03-20T10:55:30.836Z,13.05
2023-03-20T10:56:32.585Z,13.01
2023-03-20T10:57:34.288Z,12.97
2023-03-20T10:58:36.142Z,12.9
2023-03-20T10:59:37.774Z,12.86
2023-03-20T11:00:39.563Z,12.82
2023-03-20T11:01:41.285Z,12.79
2023-03-20T11:02:42.991Z,12.77
2023-03-20T11:03:44.770Z,12.72
2023-03-20T11:04:46.503Z,12.68
2023-03-20T11:06:02.247Z,12.65
2023-03-20T11:06:49.946Z,12.58
2023-03-20T11:07:51.647Z,12.53
2023-03-20T11:08:53.398Z,12.44
2023-03-20T11:09:55.121Z,12.42
2023-03-20T11:10:58.347Z,12.37
2023-03-20T11:11:58.588Z,12.31
2023-03-20T11:13:00.299Z,12.28
2023-03-20T11:14:02.061Z,12.23
2023-03-20T11:15:03.766Z,12.2
2023-03-20T11:16:05.565Z,12.15
2023-03-20T11:17:07.291Z,12.11
2023-03-20T11:18:09.187Z,12.08
2023-03-20T11:19:10.690Z,12.1
2023-03-20T11:20:12.530Z,12.12
2023-03-20T11:21:14.193Z,12.17
2023-03-20T11:22:15.941Z,12.23
2023-03-20T11:23:17.651Z,12.29
2023-03-20T11:24:19.361Z,12.35
2023-03-20T11:25:21.103Z,12.52
2023-03-20T11:26:22.865Z,12.66
2023-03-20T11:27:24.598Z,12.81
2023-03-20T11:28:26.320Z,12.92
2023-03-20T11:29:28.061Z,13.04
2023-03-20T11:30:29.784Z,13.15
2023-03-20T11:31:31.641Z,13.22
2023-03-20T11:32:33.409Z,13.31
2023-03-20T11:33:34.995Z,13.4
2023-03-20T11:34:36.725Z,13.47
2023-03-20T11:35:38.496Z,13.55
2023-03-20T11:36:40.197Z,13.63
2023-03-20T11:37:41.915Z,13.71
2023-03-20T11:38:43.658Z,13.78
2023-03-20T11:39:45.365Z,13.84
2023-03-20T11:40:47.121Z,13.88
2023-03-20T11:41:48.836Z,13.9
2023-03-20T11:42:50.569Z,14
2023-03-20T11:43:52.350Z,14.1
2023-03-20T11:44:54.057Z,14.2
2023-03-20T11:45:55.850Z,14.24
2023-03-20T11:46:57.530Z,14.26
2023-03-20T11:47:59.235Z,14.3
2023-03-20T11:49:00.977Z,14.35
2023-03-20T11:50:02.739Z,14.36
2023-03-20T11:51:04.616Z,14.44
2023-03-20T11:52:06.184Z,14.49
2023-03-20T11:53:07.903Z,14.55
2023-03-20T11:54:09.661Z,14.59
2023-03-20T11:55:11.375Z,14.61
2023-03-20T11:56:13.137Z,14.66
2023-03-20T11:57:14.882Z,14.7
2023-03-20T11:58:16.592Z,14.72
2023-03-20T11:59:18.368Z,14.71
2023-03-20T12:00:20.069Z,14.69
2023-03-20T12:01:21.806Z,14.7
2023-03-20T12:02:23.604Z,14.7
2023-03-20T12:03:25.261Z,14.74
2023-03-20T12:04:26.990Z,14.72
2023-03-20T12:05:28.738Z,14.69
2023-03-20T12:06:30.500Z,14.71
2023-03-20T12:07:32.204Z,14.67
2023-03-20T12:08:33.919Z,14.65
2023-03-20T12:09:35.642Z,14.64
2023-03-20T12:10:37.647Z,14.56
2023-03-20T12:11:39.279Z,14.6
2023-03-20T12:12:40.846Z,14.61
2023-03-20T12:13:42.616Z,14.61
2023-03-20T12:14:44.304Z,14.61
2023-03-20T12:15:46.152Z,14.6
2023-03-20T12:16:47.804Z,14.58
2023-03-20T12:17:49.511Z,14.62
2023-03-20T12:18:51.253Z,14.67
2023-03-20T12:19:53.003Z,14.68
2023-03-20T12:20:54.813Z,14.72
2023-03-20T12:21:56.470Z,14.73
2023-03-20T12:22:58.234Z,14.73
2023-03-20T12:23:59.917Z,14.7
2023-03-20T12:25:01.648Z,14.72
2023-03-20T12:26:03.406Z,14.75
2023-03-20T12:27:05.131Z,14.69
2023-03-20T12:28:06.860Z,14.64
2023-03-20T12:29:08.589Z,14.63
2023-03-20T12:30:10.375Z,14.57
2023-03-20T12:31:12.109Z,14.55
2023-03-20T12:32:13.826Z,14.53
2023-03-20T12:33:15.675Z,14.46
2023-03-20T12:34:17.276Z,14.44
2023-03-20T12:35:18.974Z,14.41
2023-03-20T12:36:20.726Z,14.39
2023-03-20T12:37:22.468Z,14.39
2023-03-20T12:38:24.172Z,14.34
2023-03-20T12:39:25.939Z,14.29
2023-03-20T12:40:28.017Z,14.19
2023-03-20T12:41:29.399Z,14.11
2023-03-20T12:42:31.114Z,14.06
2023-03-20T12:43:32.857Z,13.99
2023-03-20T12:44:34.579Z,13.95
2023-03-20T12:45:36.309Z,13.91
2023-03-20T12:46:38.125Z,13.9
2023-03-20T12:47:39.833Z,13.83
2023-03-20T12:48:41.525Z,13.79
2023-03-20T12:49:43.269Z,13.78
2023-03-20T12:50:45.017Z,13.73
2023-03-20T12:51:46.728Z,13.64
2023-03-20T12:52:48.451Z,13.55
2023-03-20T12:53:50.187Z,13.51
2023-03-20T12:54:51.907Z,13.5
2023-03-20T12:55:53.663Z,13.45
2023-03-20T12:56:55.398Z,13.38
2023-03-20T12:58:05.182Z,13.37
2023-03-20T12:59:10.347Z,13.34
2023-03-20T13:00:20.281Z,13.31
2023-03-20T13:02:32.057Z,13.23
2023-03-20T13:03:31.944Z,13.18
2023-03-20T13:05:51.820Z,13.11
2023-03-20T13:06:52.201Z,13.12
2023-03-20T13:07:53.927Z,13.06
2023-03-20T13:08:55.675Z,13.07
2023-03-20T13:09:57.391Z,13.06
2023-03-20T13:10:59.117Z,13.07
2023-03-20T13:12:00.917Z,13.09
2023-03-20T13:13:06.916Z,13.11
2023-03-20T13:14:09.463Z,13.12
2023-03-20T13:15:11.195Z,13.16
2023-03-20T13:16:12.980Z,13.2
2023-03-20T13:17:14.785Z,13.21
2023-03-20T13:18:16.422Z,13.23
2023-03-20T13:19:18.131Z,13.24
2023-03-20T13:20:19.870Z,13.27
2023-03-20T13:21:21.608Z,13.28
2023-03-20T13:22:23.343Z,13.25
2023-03-20T13:23:25.082Z,13.24
2023-03-20T13:24:26.808Z,13.22
2023-03-20T13:25:28.549Z,13.22
2023-03-20T13:26:30.515Z,13.22
2023-03-20T13:27:32.017Z,13.2
2023-03-20T13:28:33.734Z,13.21
2023-03-20T13:29:35.484Z,13.24
2023-03-20T13:30:37.582Z,13.25
2023-03-20T13:31:38.999Z,13.27
2023-03-20T13:32:40.704Z,13.27
2023-03-20T13:33:42.440Z,13.27
2023-03-20T13:34:44.150Z,13.28
2023-03-20T13:35:45.896Z,13.26
2023-03-20T13:36:47.691Z,13.26